createdAt,value
2019-05-05T00:02:24.882Z,10.20
2019-05-05T00:05:08.661Z,11.15
2019-05-05T00:10:09.399Z,9.75
2019-05-05T00:12:45.475Z,10.88
2019-05-05T00:15:28.955Z,11.10
2019-05-05T00:17:58.243Z,10.35
2019-05-05T00:20:27.395Z,9.70
2019-05-05T00:22:56.354Z,10.13
2019-05-05T00:25:25.435Z,11.40
2019-05-05T00:27:54.643Z,11.15
2019-05-05T00:30:24.958Z,11.90
2019-05-05T00:32:54.870Z,12.28
2019-05-05T00:35:25.243Z,10.32
2019-05-05T00:37:54.531Z,11.48
2019-05-05T00:40:24.824Z,11.18
2019-05-05T00:42:54.720Z,10.25
2019-05-05T00:45:25.237Z,10.43
2019-05-05T00:47:56.113Z,10.50
2019-05-05T00:50:25.362Z,10.95
2019-05-05T00:52:55.067Z,10.55
2019-05-05T00:55:24.469Z,11.70
2019-05-05T00:57:54.811Z,12.82
2019-05-05T01:00:29.793Z,10.78
2019-05-05T01:02:58.798Z,11.70
2019-05-05T01:05:35.234Z,11.70
2019-05-05T01:08:06.033Z,10.53
2019-05-05T01:10:35.873Z,10.88
2019-05-05T01:13:05.439Z,10.82
2019-05-05T01:15:34.616Z,11.12
2019-05-05T01:18:04.717Z,10.45
2019-05-05T01:20:34.341Z,11.43
2019-05-05T01:23:04.398Z,10.58
2019-05-05T01:25:34.685Z,10.78
2019-05-05T01:28:05.046Z,10.75
2019-05-05T01:30:35.835Z,11.68
2019-05-05T01:33:15.674Z,11.60
2019-05-05T01:35:44.914Z,10.78
2019-05-05T01:38:18.353Z,11.40
2019-05-05T01:40:55.121Z,10.95
2019-05-05T01:43:25.302Z,11.85
2019-05-05T01:45:54.705Z,11.38
2019-05-05T01:48:24.815Z,11.57
2019-05-05T01:50:54.421Z,12.37
2019-05-05T01:53:24.480Z,11.50
2019-05-05T01:55:54.355Z,11.70
2019-05-05T01:58:24.431Z,11.33
2019-05-05T02:00:54.600Z,11.90
2019-05-05T02:03:24.403Z,12.30
2019-05-05T02:05:54.591Z,11.85
2019-05-05T02:08:24.448Z,11.85
2019-05-05T02:10:54.760Z,12.05
2019-05-05T02:13:25.187Z,11.95
2019-05-05T02:15:55.240Z,11.57
2019-05-05T02:18:25.330Z,12.33
2019-05-05T02:21:00.034Z,11.70
2019-05-05T02:23:29.115Z,12.98
2019-05-05T02:25:57.996Z,11.83
2019-05-05T02:28:29.473Z,11.35
2019-05-05T02:31:16.851Z,11.55
2019-05-05T02:33:46.137Z,11.78
2019-05-05T02:36:16.067Z,12.33
2019-05-05T02:38:46.429Z,12.05
2019-05-05T02:41:17.795Z,12.53
2019-05-05T02:43:47.038Z,12.33
2019-05-05T02:46:18.760Z,12.90
2019-05-05T02:48:54.872Z,13.32
2019-05-05T02:51:26.077Z,12.23
2019-05-05T02:53:56.753Z,13.15
2019-05-05T02:56:29.916Z,12.33
2019-05-05T02:59:04.331Z,14.10
2019-05-05T03:01:41.848Z,13.53
2019-05-05T03:04:13.860Z,12.82
2019-05-05T03:06:45.514Z,12.40
2019-05-05T03:09:15.474Z,13.10
2019-05-05T03:11:46.474Z,12.82
2019-05-05T03:14:17.434Z,15.78
2019-05-05T03:16:46.673Z,15.03
2019-05-05T03:19:16.274Z,13.55
2019-05-05T03:21:45.434Z,13.28
2019-05-05T03:24:14.673Z,13.70
2019-05-05T03:26:44.472Z,12.90
2019-05-05T03:29:15.234Z,13.65
2019-05-05T03:31:45.943Z,14.25
2019-05-05T03:34:16.631Z,13.60
2019-05-05T03:36:46.396Z,13.03
2019-05-05T03:39:26.195Z,14.38
2019-05-05T03:42:06.155Z,13.70
2019-05-05T03:44:37.273Z,14.23
2019-05-05T03:47:06.913Z,13.72
2019-05-05T03:49:36.075Z,13.60
2019-05-05T03:52:05.634Z,14.20
2019-05-05T03:54:35.473Z,13.15
2019-05-05T03:57:10.874Z,13.32
2019-05-05T03:59:44.084Z,12.95
2019-05-05T04:02:29.812Z,12.82
2019-05-05T04:05:06.596Z,12.90
2019-05-05T04:07:36.067Z,12.47
2019-05-05T04:10:06.453Z,12.05
2019-05-05T04:12:35.533Z,12.13
2019-05-05T04:15:06.016Z,12.47
2019-05-05T04:17:44.287Z,11.55
2019-05-05T04:20:20.652Z,11.68
2019-05-05T04:22:49.654Z,12.40
2019-05-05T04:25:18.556Z,13.22
2019-05-05T04:27:47.613Z,14.00
2019-05-05T04:30:16.734Z,12.47
2019-05-05T04:32:45.782Z,13.22
2019-05-05T04:35:14.894Z,11.25
2019-05-05T04:37:43.948Z,11.83
2019-05-05T04:40:14.833Z,11.25
2019-05-05T04:42:44.275Z,11.48
2019-05-05T04:45:14.803Z,10.90
2019-05-05T04:47:48.815Z,11.95
2019-05-05T04:50:19.455Z,12.30
2019-05-05T04:52:49.775Z,11.85
2019-05-05T04:55:18.779Z,12.00
2019-05-05T04:57:47.662Z,11.88
2019-05-05T05:00:16.975Z,12.90
2019-05-05T05:02:56.706Z,12.65
2019-05-05T05:05:30.499Z,12.90
2019-05-05T05:10:27.896Z,13.25
2019-05-05T05:12:56.820Z,13.78
2019-05-05T05:15:25.696Z,14.13
2019-05-05T05:18:04.102Z,13.83
2019-05-05T05:20:33.961Z,13.62
2019-05-05T05:23:03.750Z,13.43
2019-05-05T05:25:34.682Z,16.57
2019-05-05T05:28:04.180Z,14.85
2019-05-05T05:30:34.669Z,16.27
2019-05-05T05:33:04.520Z,13.32
2019-05-05T05:35:33.730Z,13.53
2019-05-05T05:38:04.684Z,14.78
2019-05-05T05:40:35.016Z,14.03
2019-05-05T05:43:05.536Z,14.87
2019-05-05T05:45:36.063Z,15.83
2019-05-05T05:48:14.455Z,15.65
2019-05-05T05:50:53.556Z,13.62
2019-05-05T05:53:23.906Z,18.42
2019-05-05T05:55:53.781Z,16.90
2019-05-05T05:58:24.484Z,14.45
2019-05-05T06:00:54.338Z,14.60
2019-05-05T06:03:24.523Z,14.47
2019-05-05T06:05:54.108Z,15.00
2019-05-05T06:08:24.321Z,14.93
2019-05-05T06:10:54.719Z,13.83
2019-05-05T06:13:24.286Z,13.32
2019-05-05T06:15:53.687Z,12.90
2019-05-05T06:18:24.316Z,13.90
2019-05-05T06:20:53.939Z,13.08
2019-05-05T06:23:24.048Z,12.00
2019-05-05T06:25:55.128Z,11.50
2019-05-05T06:28:23.984Z,11.75
2019-05-05T06:30:54.713Z,12.23
2019-05-05T06:33:24.262Z,11.55
2019-05-05T06:35:53.702Z,12.10
2019-05-05T06:38:24.187Z,12.37
2019-05-05T06:40:57.813Z,13.62
2019-05-05T06:43:28.535Z,12.82
2019-05-05T06:46:01.572Z,11.53
2019-05-05T06:48:30.615Z,11.88
2019-05-05T06:50:59.692Z,12.18
2019-05-05T06:53:28.572Z,11.30
2019-05-05T06:55:57.614Z,11.78
2019-05-05T06:58:26.574Z,11.03
2019-05-05T07:00:55.652Z,11.57
2019-05-05T07:03:24.693Z,11.35
2019-05-05T07:05:54.026Z,11.03
2019-05-05T07:08:24.395Z,11.08
2019-05-05T07:10:54.851Z,10.55
2019-05-05T07:13:24.510Z,10.68
2019-05-05T07:15:54.260Z,10.68
2019-05-05T07:18:24.670Z,12.60
2019-05-05T07:20:54.490Z,12.82
2019-05-05T07:23:24.605Z,11.95
2019-05-05T07:25:54.954Z,10.50
2019-05-05T07:28:24.175Z,12.13
2019-05-05T07:30:54.750Z,12.43
2019-05-05T07:33:23.936Z,9.80
2019-05-05T07:36:00.273Z,11.65
2019-05-05T07:38:25.174Z,10.65
2019-05-05T07:40:54.582Z,11.25
2019-05-05T07:43:24.038Z,17.65
2019-05-05T07:45:54.040Z,15.13
2019-05-05T07:48:24.272Z,12.25
2019-05-05T07:51:02.134Z,15.10
2019-05-05T07:53:24.531Z,14.98
2019-05-05T07:55:54.211Z,10.60
2019-05-05T07:58:24.279Z,11.18
2019-05-05T08:00:54.119Z,12.13
2019-05-05T08:03:23.699Z,9.63
2019-05-05T08:05:54.497Z,10.20
2019-05-05T08:08:24.441Z,10.23
2019-05-05T08:10:54.194Z,10.65
2019-05-05T08:13:24.334Z,8.80
2019-05-05T08:15:59.841Z,10.23
2019-05-05T08:18:36.204Z,9.95
2019-05-05T08:21:08.854Z,9.83
2019-05-05T08:23:39.493Z,10.58
2019-05-05T08:26:15.972Z,9.98
2019-05-05T08:28:46.613Z,10.20
2019-05-05T08:31:17.137Z,9.45
2019-05-05T08:33:46.095Z,9.48
2019-05-05T08:36:15.014Z,11.10
2019-05-05T08:38:44.263Z,13.70
2019-05-05T08:41:13.951Z,13.03
2019-05-05T08:43:44.072Z,12.73
2019-05-05T08:46:14.303Z,12.40
2019-05-05T08:48:44.752Z,10.35
2019-05-05T08:51:14.249Z,9.55
2019-05-05T08:53:47.979Z,9.88
2019-05-05T08:56:14.720Z,10.82
2019-05-05T08:58:43.954Z,9.88
2019-05-05T09:01:14.975Z,11.25
2019-05-05T09:03:44.350Z,13.10
2019-05-05T09:06:13.910Z,10.00
2019-05-05T09:08:44.124Z,9.15
2019-05-05T09:11:14.025Z,11.57
2019-05-05T09:13:44.749Z,13.00
2019-05-05T09:16:14.422Z,9.98
2019-05-05T09:18:57.821Z,9.30
2019-05-05T09:21:27.215Z,9.08
2019-05-05T09:24:02.165Z,9.58
2019-05-05T09:26:47.894Z,11.20
2019-05-05T09:29:21.374Z,8.50
2019-05-05T09:31:50.413Z,9.00
2019-05-05T09:34:19.493Z,9.38
2019-05-05T09:36:48.814Z,9.20
2019-05-05T09:39:17.852Z,9.63
2019-05-05T09:41:46.967Z,7.80
2019-05-05T09:44:15.983Z,7.70
2019-05-05T09:46:44.972Z,8.05
2019-05-05T09:49:14.191Z,8.38
2019-05-05T09:51:43.984Z,11.63
2019-05-05T09:54:17.425Z,33.78
2019-05-05T09:56:46.974Z,12.63
2019-05-05T09:59:15.814Z,6.80
2019-05-05T10:01:44.770Z,9.23
2019-05-05T10:04:14.615Z,7.28
2019-05-05T10:06:47.627Z,8.23
2019-05-05T10:09:14.497Z,7.75
2019-05-05T10:11:45.049Z,5.92
2019-05-05T10:14:14.396Z,34.90
2019-05-05T10:16:43.517Z,18.40
2019-05-05T10:19:13.889Z,6.17
2019-05-05T10:21:44.375Z,6.35
2019-05-05T10:24:27.733Z,6.50
2019-05-05T10:26:46.293Z,4.97
2019-05-05T10:29:15.336Z,6.20
2019-05-05T10:31:44.373Z,6.92
2019-05-05T10:34:15.094Z,10.55
2019-05-05T10:36:44.315Z,11.73
2019-05-05T10:39:21.006Z,12.60
2019-05-05T10:41:49.855Z,7.37
2019-05-05T10:44:18.772Z,21.33
2019-05-05T10:46:47.858Z,11.25
2019-05-05T10:49:16.813Z,9.75
2019-05-05T10:51:45.810Z,5.60
2019-05-05T10:54:14.981Z,5.40
2019-05-05T10:56:43.981Z,5.28
2019-05-05T10:59:13.372Z,5.92
2019-05-05T11:01:42.614Z,4.83
2019-05-05T11:04:13.561Z,4.67
2019-05-05T11:06:44.086Z,5.30
2019-05-05T11:09:14.042Z,5.15
2019-05-05T11:11:43.859Z,5.20
2019-05-05T11:14:14.132Z,5.75
2019-05-05T11:16:43.948Z,5.45
2019-05-05T11:19:13.677Z,5.80
2019-05-05T11:21:43.579Z,5.53
2019-05-05T11:24:14.690Z,6.05
2019-05-05T11:26:44.598Z,6.03
2019-05-05T11:29:13.895Z,5.80
2019-05-05T11:31:43.012Z,5.78
2019-05-05T11:34:14.151Z,6.00
2019-05-05T11:36:44.772Z,6.10
2019-05-05T11:39:14.760Z,5.33
2019-05-05T11:41:44.177Z,5.50
2019-05-05T11:44:15.181Z,6.03
2019-05-05T11:46:44.367Z,4.90
2019-05-05T11:49:14.023Z,4.67
2019-05-05T11:51:43.685Z,4.50
2019-05-05T11:54:14.082Z,4.15
2019-05-05T11:56:44.713Z,4.58
2019-05-05T11:59:14.430Z,4.90
2019-05-05T12:01:44.139Z,4.00
2019-05-05T12:04:14.808Z,4.75
2019-05-05T12:06:44.371Z,4.75
2019-05-05T12:09:15.214Z,11.90
2019-05-05T12:11:44.169Z,6.08
2019-05-05T12:14:14.652Z,5.92
2019-05-05T12:16:43.962Z,4.78
2019-05-05T12:19:13.775Z,5.08
2019-05-05T12:21:44.218Z,4.08
2019-05-05T12:24:14.935Z,10.25
2019-05-05T12:26:45.574Z,4.95
2019-05-05T12:29:14.619Z,3.98
2019-05-05T12:31:45.334Z,4.20
2019-05-05T12:34:14.414Z,3.98
2019-05-05T12:36:44.524Z,3.60
2019-05-05T12:39:14.373Z,11.90
2019-05-05T12:41:43.575Z,3.87
2019-05-05T12:44:14.372Z,3.90
2019-05-05T12:46:51.015Z,4.25
2019-05-05T12:49:22.671Z,3.40
2019-05-05T12:51:50.855Z,3.12
2019-05-05T12:54:19.934Z,3.42
2019-05-05T12:56:48.790Z,3.50
2019-05-05T12:59:19.254Z,3.77
2019-05-05T13:01:48.446Z,3.17
2019-05-05T13:04:17.493Z,3.65
2019-05-05T13:06:46.453Z,3.35
2019-05-05T13:09:16.335Z,3.00
2019-05-05T13:11:45.455Z,3.27
2019-05-05T13:14:14.533Z,2.98
2019-05-05T13:16:52.404Z,3.40
2019-05-05T13:19:15.932Z,2.98
2019-05-05T13:21:49.573Z,3.22
2019-05-05T13:24:26.212Z,3.40
2019-05-05T13:27:08.468Z,3.42
2019-05-05T13:29:33.923Z,3.30
2019-05-05T13:32:03.656Z,2.75
2019-05-05T13:34:32.738Z,3.17
2019-05-05T13:37:03.478Z,3.58
2019-05-05T13:39:34.052Z,4.78
2019-05-05T13:42:04.580Z,3.05
2019-05-05T13:44:50.412Z,3.35
2019-05-05T13:47:19.653Z,2.90
2019-05-05T13:49:49.412Z,3.80
2019-05-05T13:52:18.412Z,3.55
2019-05-05T13:54:47.495Z,3.55
2019-05-05T13:57:16.573Z,3.70
2019-05-05T13:59:45.613Z,3.55
2019-05-05T14:02:14.735Z,2.85
2019-05-05T14:04:43.939Z,2.83
2019-05-05T14:07:12.880Z,3.60
2019-05-05T14:09:44.047Z,3.30
2019-05-05T14:12:14.631Z,2.92
2019-05-05T14:14:44.094Z,4.15
2019-05-05T14:17:14.753Z,3.83
2019-05-05T14:19:44.549Z,2.87
2019-05-05T14:22:13.858Z,3.02
2019-05-05T14:24:53.895Z,4.33
2019-05-05T14:27:23.823Z,9.15
2019-05-05T14:29:54.632Z,2.92
2019-05-05T14:32:25.349Z,3.02
2019-05-05T14:34:56.132Z,3.87
2019-05-05T14:37:25.536Z,2.62
2019-05-05T14:39:55.096Z,3.15
2019-05-05T14:42:24.292Z,2.83
2019-05-05T14:44:54.538Z,5.65
2019-05-05T14:47:24.606Z,4.55
2019-05-05T14:49:54.301Z,4.53
2019-05-05T14:52:24.607Z,3.12
2019-05-05T14:54:54.651Z,3.45
2019-05-05T14:57:25.492Z,6.10
2019-05-05T14:59:54.414Z,6.03
2019-05-05T15:02:24.527Z,10.30
2019-05-05T15:04:55.133Z,10.32
2019-05-05T15:07:26.255Z,9.83
2019-05-05T15:10:14.459Z,10.50
2019-05-05T15:12:45.373Z,8.53
2019-05-05T15:15:15.333Z,5.45
2019-05-05T15:17:44.426Z,5.90
2019-05-05T15:20:14.090Z,7.30
2019-05-05T15:22:43.748Z,10.08
2019-05-05T15:25:13.253Z,5.90
2019-05-05T15:27:44.985Z,7.25
2019-05-05T15:30:13.653Z,9.73
2019-05-05T15:32:43.805Z,7.97
2019-05-05T15:35:14.297Z,7.53
2019-05-05T15:37:43.806Z,6.10
2019-05-05T15:40:14.289Z,4.70
2019-05-05T15:42:44.008Z,6.08
2019-05-05T15:45:13.495Z,4.55
2019-05-05T15:47:43.606Z,8.83
2019-05-05T15:50:13.817Z,6.83
2019-05-05T15:52:44.084Z,10.00
2019-05-05T15:55:14.229Z,32.48
2019-05-05T15:57:44.276Z,41.35
2019-05-05T16:00:14.231Z,18.65
2019-05-05T16:02:44.191Z,10.15
2019-05-05T16:05:13.977Z,7.00
2019-05-05T16:07:43.967Z,8.85
2019-05-05T16:10:14.216Z,7.78
2019-05-05T16:12:45.027Z,6.28
2019-05-05T16:15:24.167Z,6.72
2019-05-05T16:17:54.815Z,6.60
2019-05-05T16:20:28.576Z,4.78
2019-05-05T16:23:16.095Z,5.08
2019-05-05T16:25:46.708Z,4.20
2019-05-05T16:28:16.135Z,4.05
2019-05-05T16:30:45.458Z,5.17
2019-05-05T16:33:14.895Z,4.55
2019-05-05T16:35:44.175Z,5.65
2019-05-05T16:38:14.920Z,4.78
2019-05-05T16:40:44.856Z,5.30
2019-05-05T16:43:16.562Z,5.67
2019-05-05T16:45:44.894Z,5.15
2019-05-05T16:48:14.310Z,8.50
2019-05-05T16:50:44.395Z,7.12
2019-05-05T16:53:31.278Z,9.18
2019-05-05T16:56:00.614Z,10.28
2019-05-05T16:58:29.783Z,8.28
2019-05-05T17:00:59.214Z,5.78
2019-05-05T17:03:28.534Z,8.93
2019-05-05T17:05:58.270Z,6.45
2019-05-05T17:08:27.736Z,7.03
2019-05-05T17:10:57.213Z,8.05
2019-05-05T17:13:44.302Z,7.53
2019-05-05T17:16:30.218Z,6.10
2019-05-05T17:19:10.099Z,5.95
2019-05-05T17:21:53.544Z,5.95
2019-05-05T17:24:24.043Z,5.50
2019-05-05T17:26:54.845Z,6.08
2019-05-05T17:29:24.534Z,7.37
2019-05-05T17:31:54.185Z,5.45
2019-05-05T17:34:24.717Z,5.25
2019-05-05T17:36:54.134Z,6.15
2019-05-05T17:39:25.133Z,5.25
2019-05-05T17:41:58.815Z,5.25
2019-05-05T17:44:35.904Z,5.55
2019-05-05T17:47:15.852Z,7.37
2019-05-05T17:49:55.709Z,6.22
2019-05-05T17:52:26.497Z,5.95
2019-05-05T17:54:56.495Z,6.35
2019-05-05T17:57:25.936Z,6.03
2019-05-05T17:59:55.337Z,6.15
2019-05-05T18:02:24.575Z,5.67
2019-05-05T18:04:54.313Z,5.60
2019-05-05T18:07:31.415Z,5.95
2019-05-05T18:10:08.335Z,7.37
2019-05-05T18:12:54.255Z,7.15
2019-05-05T18:15:43.340Z,7.17
2019-05-05T18:18:13.950Z,6.35
2019-05-05T18:20:44.979Z,6.33
2019-05-05T18:23:16.734Z,6.30
2019-05-05T18:25:46.018Z,6.17
2019-05-05T18:28:19.915Z,6.35
2019-05-05T18:30:46.853Z,6.00
2019-05-05T18:33:16.174Z,6.20
2019-05-05T18:35:45.452Z,6.72
2019-05-05T18:38:14.738Z,6.90
2019-05-05T18:40:44.813Z,6.40
2019-05-05T18:43:15.572Z,6.80
2019-05-05T18:45:45.038Z,6.40
2019-05-05T18:48:14.335Z,6.12
2019-05-05T18:50:43.654Z,6.22
2019-05-05T18:53:14.032Z,6.37
2019-05-05T18:55:44.618Z,6.25
2019-05-05T18:58:26.747Z,6.10
2019-05-05T19:00:49.492Z,6.33
2019-05-05T19:03:38.492Z,6.85
2019-05-05T19:06:18.534Z,7.37
2019-05-05T19:08:54.262Z,7.53
2019-05-05T19:11:20.294Z,7.53
2019-05-05T19:13:49.665Z,7.20
2019-05-05T19:16:18.973Z,6.83
2019-05-05T19:18:48.214Z,6.83
2019-05-05T19:21:28.373Z,7.47
2019-05-05T19:23:57.693Z,7.62
2019-05-05T19:26:27.772Z,7.37
2019-05-05T19:28:57.132Z,6.85
2019-05-05T19:31:26.374Z,6.67
2019-05-05T19:33:56.074Z,7.10
2019-05-05T19:36:27.486Z,6.95
2019-05-05T19:38:56.413Z,6.50
2019-05-05T19:41:25.692Z,6.75
2019-05-05T19:43:55.351Z,6.75
2019-05-05T19:46:26.933Z,7.08
2019-05-05T19:49:15.093Z,6.92
2019-05-05T19:51:44.788Z,6.67
2019-05-05T19:54:14.478Z,6.87
2019-05-05T19:56:44.796Z,8.05
2019-05-05T19:59:14.374Z,7.78
2019-05-05T20:01:45.037Z,7.80
2019-05-05T20:04:14.800Z,8.10
2019-05-05T20:06:44.537Z,8.83
2019-05-05T20:09:14.359Z,12.88
2019-05-05T20:11:44.080Z,10.93
2019-05-05T20:14:15.295Z,9.83
2019-05-05T20:17:04.656Z,8.50
2019-05-05T20:19:35.660Z,8.40
2019-05-05T20:22:04.892Z,7.80
2019-05-05T20:24:34.272Z,7.15
2019-05-05T20:27:04.499Z,7.67
2019-05-05T20:29:37.237Z,7.42
2019-05-05T20:32:05.047Z,7.62
2019-05-05T20:34:54.033Z,7.33
2019-05-05T20:37:27.892Z,7.58
2019-05-05T20:39:58.534Z,7.75
2019-05-05T20:42:27.452Z,8.58
2019-05-05T20:44:56.575Z,8.53
2019-05-05T20:47:25.575Z,7.85
2019-05-05T20:49:54.414Z,6.87
2019-05-05T20:52:23.757Z,6.97
2019-05-05T20:54:53.760Z,7.42
2019-05-05T20:57:22.973Z,7.30
2019-05-05T20:59:52.058Z,7.37
2019-05-05T21:02:21.092Z,7.08
2019-05-05T21:04:50.217Z,7.15
2019-05-05T21:07:19.173Z,7.65
2019-05-05T21:09:48.053Z,7.30
2019-05-05T21:12:17.092Z,7.37
2019-05-05T21:14:46.254Z,9.18
2019-05-05T21:17:15.176Z,8.13
2019-05-05T21:19:44.236Z,6.95
2019-05-05T21:22:29.932Z,8.43
2019-05-05T21:24:59.338Z,7.90
2019-05-05T21:27:28.376Z,8.30
2019-05-05T21:29:57.495Z,8.10
2019-05-05T21:32:26.654Z,8.10
2019-05-05T21:34:55.663Z,7.40
2019-05-05T21:37:24.999Z,7.33
2019-05-05T21:39:55.149Z,7.40
2019-05-05T21:42:24.534Z,7.40
2019-05-05T21:44:54.011Z,7.90
2019-05-05T21:47:23.994Z,7.47
2019-05-05T21:49:54.181Z,7.03
2019-05-05T21:52:28.333Z,7.55
2019-05-05T21:57:50.373Z,7.15
2019-05-05T22:00:24.084Z,7.47
2019-05-05T22:02:53.132Z,6.80
2019-05-05T22:05:23.991Z,7.05
2019-05-05T22:07:53.896Z,7.12
2019-05-05T22:10:24.471Z,6.65
2019-05-05T22:12:54.233Z,6.50
2019-05-05T22:15:23.294Z,6.90
2019-05-05T22:17:54.248Z,6.60
2019-05-05T22:20:30.172Z,7.67
2019-05-05T22:22:59.333Z,7.55
2019-05-05T22:25:28.373Z,7.50
2019-05-05T22:27:57.294Z,7.28
2019-05-05T22:30:26.172Z,7.70
2019-05-05T22:32:55.213Z,7.30
2019-05-05T22:35:24.334Z,7.97
2019-05-05T22:37:53.373Z,7.65
2019-05-05T22:40:24.449Z,7.20
2019-05-05T22:42:54.666Z,7.37
2019-05-05T22:45:23.933Z,7.97
2019-05-05T22:47:54.331Z,8.28
2019-05-05T22:50:24.701Z,8.00
2019-05-05T22:52:54.518Z,7.37
2019-05-05T22:55:24.711Z,8.10
2019-05-05T22:57:54.549Z,7.70
2019-05-05T23:00:29.451Z,8.03
2019-05-05T23:03:00.812Z,12.00
2019-05-05T23:05:49.413Z,8.68
2019-05-05T23:08:18.792Z,7.65
2019-05-05T23:10:47.852Z,8.40
2019-05-05T23:13:17.317Z,8.68
2019-05-05T23:15:50.892Z,7.50
2019-05-05T23:18:25.667Z,8.33
2019-05-05T23:21:05.807Z,7.20
2019-05-05T23:23:51.733Z,7.62
2019-05-05T23:26:25.132Z,7.05
2019-05-05T23:28:54.015Z,6.70
2019-05-05T23:31:24.134Z,7.67
2019-05-05T23:33:54.838Z,6.65
2019-05-05T23:36:24.256Z,5.80
2019-05-05T23:38:54.894Z,6.15
2019-05-05T23:41:24.066Z,6.15
2019-05-05T23:43:54.511Z,5.22
2019-05-05T23:46:24.263Z,4.83
2019-05-05T23:48:53.803Z,5.03
2019-05-05T23:51:24.234Z,4.40
2019-05-05T23:53:55.013Z,4.90
2019-05-05T23:56:24.255Z,4.83
2019-05-05T23:58:54.946Z,4.35
